createdAt,value
2023-01-30T05:01:56.001Z,14.57
2023-01-30T05:04:27.640Z,14.17
2023-01-30T05:06:59.276Z,14.70
2023-01-30T05:09:30.914Z,13.07
2023-01-30T05:12:02.545Z,14.20
2023-01-30T05:14:34.190Z,14.93
2023-01-30T05:17:07.271Z,14.03
2023-01-30T05:19:38.969Z,15.43
2023-01-30T05:22:10.692Z,14.87
2023-01-30T05:24:42.388Z,15.50
2023-01-30T05:27:14.042Z,15.27
2023-01-30T05:29:45.728Z,13.90
2023-01-30T05:32:19.185Z,14.73
2023-01-30T05:34:50.823Z,14.57
2023-01-30T05:37:22.483Z,15.03
2023-01-30T05:39:54.104Z,14.23
2023-01-30T05:42:25.749Z,14.50
2023-01-30T05:44:57.387Z,15.13
2023-01-30T05:47:30.385Z,14.43
2023-01-30T05:50:02.087Z,14.13
2023-01-30T05:52:33.761Z,15.10
2023-01-30T05:55:06.362Z,14.03
2023-01-30T05:57:38.034Z,14.03
2023-01-30T06:00:10.944Z,14.03
2023-01-30T06:02:43.998Z,13.90
2023-01-30T06:05:16.134Z,14.00
2023-01-30T06:07:47.990Z,13.07
2023-01-30T06:10:19.650Z,16.00
2023-01-30T06:12:51.306Z,12.33
2023-01-30T06:15:22.941Z,13.33
2023-01-30T06:17:55.926Z,12.13
2023-01-30T06:20:27.592Z,12.13
2023-01-30T06:22:59.253Z,11.67
2023-01-30T06:25:30.889Z,11.80
2023-01-30T06:28:02.590Z,12.97
2023-01-30T06:30:34.332Z,12.50
2023-01-30T06:33:07.462Z,12.83
2023-01-30T06:35:39.153Z,12.17
2023-01-30T06:38:11.093Z,12.37
2023-01-30T06:40:44.624Z,12.07
2023-01-30T06:43:16.349Z,11.10
2023-01-30T06:45:48.013Z,11.20
2023-01-30T06:48:21.480Z,12.68
2023-01-30T06:50:53.507Z,10.63
2023-01-30T06:53:25.244Z,10.87
2023-01-30T06:55:57.199Z,10.80
2023-01-30T06:58:28.836Z,9.87
2023-01-30T07:01:00.506Z,9.93
2023-01-30T07:03:33.524Z,11.73
2023-01-30T07:06:05.599Z,10.13
2023-01-30T07:08:37.268Z,10.70
2023-01-30T07:11:08.933Z,10.90
2023-01-30T07:13:40.738Z,10.63
2023-01-30T07:16:12.401Z,10.73
2023-01-30T07:18:45.400Z,10.53
2023-01-30T07:21:17.077Z,10.30
2023-01-30T07:23:48.725Z,10.53
2023-01-30T07:26:20.407Z,10.13
2023-01-30T07:28:52.249Z,11.10
2023-01-30T07:31:23.971Z,10.83
2023-01-30T07:33:56.963Z,10.67
2023-01-30T07:36:28.600Z,11.00
2023-01-30T07:39:00.241Z,11.07
2023-01-30T07:41:31.914Z,11.77
2023-01-30T07:44:03.764Z,10.73
2023-01-30T07:46:35.851Z,11.30
2023-01-30T07:49:09.391Z,11.23
2023-01-30T07:51:41.056Z,11.63
2023-01-30T07:54:12.720Z,11.37
2023-01-30T07:56:44.385Z,10.77
2023-01-30T07:59:16.431Z,11.70
2023-01-30T08:01:48.105Z,12.13
2023-01-30T08:04:21.150Z,11.23
2023-01-30T08:06:52.818Z,11.13
2023-01-30T08:09:24.505Z,11.67
2023-01-30T08:11:56.218Z,12.07
2023-01-30T08:14:27.867Z,11.27
2023-01-30T08:16:59.569Z,12.47
2023-01-30T08:19:32.923Z,11.70
2023-01-30T08:22:04.583Z,11.33
2023-01-30T08:24:36.261Z,11.43
2023-01-30T08:27:07.994Z,11.10
2023-01-30T08:29:39.645Z,11.03
2023-01-30T08:32:11.319Z,12.50
2023-01-30T08:34:44.340Z,11.33
2023-01-30T08:37:16.038Z,11.50
2023-01-30T08:39:48.031Z,11.37
2023-01-30T08:42:19.689Z,12.40
2023-01-30T08:44:51.417Z,12.73
2023-01-30T08:47:23.116Z,11.87
2023-01-30T08:49:56.129Z,11.80
2023-01-30T08:52:27.767Z,12.27
2023-01-30T08:54:59.450Z,11.80
2023-01-30T08:57:31.090Z,12.03
2023-01-30T09:00:03.332Z,10.93
2023-01-30T09:02:35.041Z,11.67
2023-01-30T09:05:09.071Z,12.03
2023-01-30T09:07:40.721Z,11.87
2023-01-30T09:10:12.415Z,10.03
2023-01-30T09:12:44.133Z,10.30
2023-01-30T09:15:15.866Z,9.43
2023-01-30T09:17:47.586Z,7.87
2023-01-30T09:20:21.091Z,7.33
2023-01-30T09:22:52.810Z,7.67
2023-01-30T09:25:24.466Z,6.30
2023-01-30T09:27:56.131Z,6.13
2023-01-30T09:30:27.796Z,5.40
2023-01-30T09:32:59.495Z,5.03
2023-01-30T09:35:32.476Z,5.23
2023-01-30T09:38:04.374Z,5.20
2023-01-30T09:40:36.048Z,3.70
2023-01-30T09:43:22.807Z,4.80
2023-01-30T09:46:01.302Z,5.53
2023-01-30T09:48:35.081Z,4.07
2023-01-30T09:51:36.406Z,4.30
2023-01-30T09:54:25.425Z,4.60
2023-01-30T09:57:01.441Z,4.10
2023-01-30T09:59:36.101Z,3.90
2023-01-30T10:02:20.962Z,4.00
2023-01-30T10:05:01.215Z,3.77
2023-01-30T10:07:42.118Z,4.20
2023-01-30T10:10:18.004Z,4.40
2023-01-30T10:12:54.769Z,4.17
2023-01-30T10:15:32.328Z,3.70
2023-01-30T10:18:13.989Z,3.50
2023-01-30T10:20:49.342Z,4.60
2023-01-30T10:23:40.388Z,3.53
2023-01-30T10:26:14.455Z,3.37
2023-01-30T10:28:58.856Z,3.57
2023-01-30T10:31:41.092Z,4.43
2023-01-30T10:34:14.106Z,3.97
2023-01-30T10:36:47.688Z,3.90
2023-01-30T10:39:22.132Z,3.50
2023-01-30T10:41:57.758Z,3.70
2023-01-30T10:44:29.782Z,4.53
2023-01-30T10:47:04.985Z,3.93
2023-01-30T10:49:39.404Z,4.03
2023-01-30T10:52:22.998Z,4.13
2023-01-30T10:54:57.317Z,3.60
2023-01-30T10:57:32.758Z,3.43
2023-01-30T11:00:05.585Z,3.70
2023-01-30T11:02:40.493Z,4.00
2023-01-30T11:05:14.451Z,3.73
2023-01-30T11:07:46.229Z,4.10
2023-01-30T11:10:18.984Z,3.87
2023-01-30T11:12:53.396Z,3.60
2023-01-30T11:15:25.106Z,3.53
2023-01-30T11:18:22.817Z,3.53
2023-01-30T11:21:01.571Z,4.00
2023-01-30T11:23:34.047Z,3.50
2023-01-30T11:26:12.515Z,2.97
2023-01-30T11:28:47.659Z,3.63
2023-01-30T11:31:31.499Z,3.33
2023-01-30T11:34:12.826Z,3.50
2023-01-30T11:36:44.528Z,3.40
2023-01-30T11:39:20.709Z,3.03
2023-01-30T11:41:57.823Z,3.30
2023-01-30T11:44:32.130Z,3.67
2023-01-30T11:47:07.750Z,3.73
2023-01-30T11:49:46.195Z,3.07
2023-01-30T11:52:32.673Z,3.10
2023-01-30T11:55:06.595Z,2.90
2023-01-30T11:57:41.346Z,2.90
2023-01-30T12:00:17.762Z,3.03
2023-01-30T12:02:49.912Z,3.20
2023-01-30T12:05:24.766Z,3.30
2023-01-30T12:08:12.279Z,3.20
2023-01-30T12:10:44.463Z,4.23
2023-01-30T12:13:18.569Z,3.83
2023-01-30T12:15:53.938Z,3.97
2023-01-30T12:18:28.427Z,3.40
2023-01-30T12:21:00.610Z,3.40
2023-01-30T12:23:37.925Z,3.30
2023-01-30T12:26:12.633Z,3.33
2023-01-30T12:28:46.474Z,3.60
2023-01-30T12:31:21.537Z,2.83
2023-01-30T12:33:53.188Z,3.73
2023-01-30T12:36:29.660Z,3.87
2023-01-30T12:39:14.215Z,3.37
2023-01-30T12:41:53.365Z,3.30
2023-01-30T12:44:38.675Z,3.40
2023-01-30T12:47:20.021Z,3.60
2023-01-30T12:50:02.541Z,3.23
2023-01-30T12:52:40.195Z,2.80
2023-01-30T12:55:19.027Z,3.03
2023-01-30T12:57:53.280Z,3.37
2023-01-30T13:00:30.420Z,3.13
2023-01-30T13:03:17.981Z,3.37
2023-01-30T13:05:52.120Z,3.37
2023-01-30T13:08:34.728Z,3.53
2023-01-30T13:11:13.310Z,3.40
2023-01-30T13:13:46.962Z,3.13
2023-01-30T13:16:22.850Z,3.80
2023-01-30T13:18:57.544Z,3.27
2023-01-30T13:21:31.751Z,2.97
2023-01-30T13:24:11.161Z,3.40
2023-01-30T13:26:42.864Z,3.20
2023-01-30T13:29:15.735Z,3.67
2023-01-30T13:31:50.683Z,3.40
2023-01-30T13:34:26.067Z,3.33
2023-01-30T13:36:59.531Z,3.20
2023-01-30T13:39:35.357Z,3.17
2023-01-30T13:42:08.384Z,4.00
2023-01-30T13:44:40.837Z,4.23
2023-01-30T13:47:19.185Z,4.40
2023-01-30T13:49:56.197Z,3.53
2023-01-30T13:52:30.237Z,3.30
2023-01-30T13:55:05.066Z,3.37
2023-01-30T13:57:43.586Z,3.17
2023-01-30T14:00:29.783Z,3.47
2023-01-30T14:03:27.068Z,3.50
2023-01-30T14:06:04.632Z,3.57
2023-01-30T14:08:39.901Z,3.17
2023-01-30T14:11:34.373Z,3.20
2023-01-30T14:14:29.248Z,3.37
2023-01-30T14:17:12.049Z,3.30
2023-01-30T14:19:45.397Z,3.80
2023-01-30T14:22:26.202Z,4.37
2023-01-30T14:25:31.257Z,3.97
2023-01-30T14:28:48.607Z,3.27
2023-01-30T14:31:53.473Z,3.13
2023-01-30T14:34:46.796Z,3.97
2023-01-30T14:37:45.762Z,4.07
2023-01-30T14:40:37.093Z,3.63
2023-01-30T14:43:27.797Z,3.13
2023-01-30T14:46:00.148Z,3.77
2023-01-30T14:48:33.112Z,4.17
2023-01-30T14:51:26.520Z,3.43
2023-01-30T14:54:00.241Z,3.27
2023-01-30T14:56:37.923Z,3.23
2023-01-30T14:59:11.205Z,3.10
2023-01-30T15:02:10.463Z,3.20
2023-01-30T15:04:43.312Z,3.33
2023-01-30T15:07:16.804Z,4.10
2023-01-30T15:09:52.605Z,4.23
2023-01-30T15:12:33.085Z,4.20
2023-01-30T15:15:08.309Z,3.87
2023-01-30T15:17:42.281Z,4.43
2023-01-30T15:20:19.370Z,3.80
2023-01-30T15:22:55.111Z,3.60
2023-01-30T15:25:30.244Z,3.23
2023-01-30T15:28:03.744Z,3.53
2023-01-30T15:30:41.643Z,3.83
2023-01-30T15:33:19.996Z,3.43
2023-01-30T15:35:55.152Z,3.70
2023-01-30T15:38:28.212Z,4.00
2023-01-30T15:41:02.144Z,3.27
2023-01-30T15:43:37.872Z,3.70
2023-01-30T15:46:11.228Z,3.10
2023-01-30T15:48:46.651Z,3.17
2023-01-30T15:51:19.950Z,3.37
2023-01-30T15:53:51.961Z,3.73
2023-01-30T15:56:25.812Z,4.03
2023-01-30T15:58:58.271Z,3.73
2023-01-30T16:01:30.419Z,4.77
2023-01-30T16:04:02.526Z,4.00
2023-01-30T16:06:35.106Z,3.70
2023-01-30T16:09:07.624Z,3.63
2023-01-30T16:11:41.367Z,3.40
2023-01-30T16:14:14.057Z,3.03
2023-01-30T16:16:46.923Z,3.43
2023-01-30T16:19:20.657Z,3.57
2023-01-30T16:21:52.769Z,3.97
2023-01-30T16:24:26.446Z,3.33
2023-01-30T16:27:01.236Z,4.13
2023-01-30T16:29:34.747Z,3.50
2023-01-30T16:32:11.836Z,3.80
2023-01-30T16:34:43.505Z,3.47
2023-01-30T16:37:24.649Z,4.53
2023-01-30T16:40:03.361Z,3.87
2023-01-30T16:42:36.352Z,4.27
2023-01-30T16:45:48.724Z,3.93
2023-01-30T16:48:28.278Z,4.03
2023-01-30T16:51:16.552Z,4.20
2023-01-30T16:53:55.150Z,3.67
2023-01-30T16:56:26.805Z,5.10
2023-01-30T16:59:00.352Z,3.63
2023-01-30T17:01:36.812Z,3.87
2023-01-30T17:04:18.793Z,4.03
2023-01-30T17:06:55.398Z,3.90
2023-01-30T17:09:39.393Z,3.83
2023-01-30T17:12:47.926Z,4.73
2023-01-30T17:15:28.669Z,4.27
2023-01-30T17:18:00.551Z,3.90
2023-01-30T17:20:39.991Z,3.83
2023-01-30T17:23:12.010Z,4.37
2023-01-30T17:25:43.923Z,4.57
2023-01-30T17:28:19.392Z,4.97
2023-01-30T17:30:52.447Z,3.60
2023-01-30T17:33:24.190Z,3.87
2023-01-30T17:35:55.868Z,3.73
2023-01-30T17:38:27.536Z,4.67
2023-01-30T17:40:59.181Z,3.90
2023-01-30T17:43:30.816Z,3.57
2023-01-30T17:46:03.876Z,3.93
2023-01-30T17:48:35.549Z,4.47
2023-01-30T17:51:07.233Z,4.03
2023-01-30T17:53:38.905Z,3.73
2023-01-30T17:56:15.398Z,4.23
2023-01-30T17:58:47.013Z,3.77
2023-01-30T18:01:20.061Z,4.33
2023-01-30T18:03:51.706Z,4.50
2023-01-30T18:06:23.381Z,5.07
2023-01-30T18:08:55.128Z,4.10
2023-01-30T18:11:26.806Z,4.73
2023-01-30T18:13:58.538Z,4.00
2023-01-30T18:16:31.558Z,4.63
2023-01-30T18:19:05.059Z,4.57
2023-01-30T18:21:37.118Z,4.10
2023-01-30T18:24:09.153Z,4.30
2023-01-30T18:26:40.905Z,4.50
2023-01-30T18:29:12.724Z,4.97
2023-01-30T18:31:45.888Z,4.20
2023-01-30T18:34:17.700Z,4.73
2023-01-30T18:36:49.396Z,4.90
2023-01-30T18:39:21.026Z,4.23
2023-01-30T18:41:52.694Z,4.37
2023-01-30T18:44:24.341Z,4.97
2023-01-30T18:46:57.347Z,4.60
2023-01-30T18:49:30.007Z,3.97
2023-01-30T18:52:01.648Z,4.33
2023-01-30T18:54:33.293Z,4.80
2023-01-30T18:57:04.960Z,4.47
2023-01-30T18:59:36.600Z,4.97
2023-01-30T19:02:11.227Z,4.87
2023-01-30T19:04:42.884Z,4.00
2023-01-30T19:07:14.558Z,5.23
2023-01-30T19:09:46.413Z,4.73
2023-01-30T19:12:18.065Z,4.50
2023-01-30T19:14:50.140Z,4.83
2023-01-30T19:17:23.259Z,4.93
2023-01-30T19:19:55.120Z,4.43
2023-01-30T19:22:26.750Z,4.57
2023-01-30T19:24:58.427Z,4.53
2023-01-30T19:27:30.088Z,4.23
2023-01-30T19:30:01.845Z,5.67
2023-01-30T19:32:35.329Z,4.50
2023-01-30T19:35:07.835Z,5.20
2023-01-30T19:37:39.498Z,4.20
2023-01-30T19:40:12.078Z,5.00
2023-01-30T19:42:44.591Z,5.63
2023-01-30T19:45:16.438Z,4.13
2023-01-30T19:47:49.422Z,4.70
2023-01-30T19:50:21.272Z,4.83
2023-01-30T19:52:53.090Z,4.07
2023-01-30T19:55:25.091Z,4.97
2023-01-30T19:57:56.757Z,5.07
2023-01-30T20:00:28.423Z,6.03
2023-01-30T20:03:01.480Z,3.90
2023-01-30T20:05:33.228Z,4.37
2023-01-30T20:08:05.030Z,4.37
2023-01-30T20:10:36.729Z,4.50
2023-01-30T20:13:08.382Z,4.90
2023-01-30T20:15:40.044Z,4.47
2023-01-30T20:18:13.108Z,5.00
2023-01-30T20:20:44.748Z,4.30
2023-01-30T20:23:16.415Z,4.70
2023-01-30T20:25:48.645Z,4.03
2023-01-30T20:28:20.515Z,4.10
2023-01-30T20:30:52.181Z,4.30
2023-01-30T20:33:25.672Z,4.43
2023-01-30T20:36:00.461Z,4.80
2023-01-30T20:38:32.248Z,3.97
2023-01-30T20:41:04.270Z,4.07
2023-01-30T20:43:36.134Z,4.00
2023-01-30T20:46:08.669Z,4.50
2023-01-30T20:48:41.968Z,4.30
2023-01-30T20:51:14.299Z,3.87
2023-01-30T20:53:46.704Z,3.90
2023-01-30T20:56:18.412Z,3.93
2023-01-30T20:58:50.224Z,4.10
2023-01-30T21:01:22.692Z,4.97
2023-01-30T21:03:55.878Z,4.80
2023-01-30T21:06:41.310Z,3.80
2023-01-30T21:09:16.032Z,4.30
2023-01-30T21:11:47.796Z,3.37
2023-01-30T21:14:19.452Z,3.50
2023-01-30T21:16:51.202Z,4.40
2023-01-30T21:19:24.205Z,4.57
2023-01-30T21:21:55.895Z,4.10
2023-01-30T21:24:28.499Z,5.07
2023-01-30T21:27:00.513Z,4.83
2023-01-30T21:29:32.205Z,5.10
2023-01-30T21:32:03.949Z,5.10
2023-01-30T21:34:37.006Z,4.73
2023-01-30T21:37:08.709Z,4.53
2023-01-30T21:39:40.369Z,5.10
2023-01-30T21:42:12.044Z,4.83
2023-01-30T21:44:43.676Z,5.53
2023-01-30T21:47:15.366Z,6.17
2023-01-30T21:49:48.359Z,5.77
2023-01-30T21:52:20.262Z,5.87
2023-01-30T21:54:51.907Z,5.27
2023-01-30T21:57:23.567Z,4.97
2023-01-30T21:59:55.610Z,4.87
2023-01-30T22:02:27.338Z,5.53
2023-01-30T22:05:00.288Z,5.97
2023-01-30T22:07:32.055Z,5.33
2023-01-30T22:10:04.102Z,5.40
2023-01-30T22:12:36.450Z,6.23
2023-01-30T22:15:08.891Z,5.70
2023-01-30T22:17:40.531Z,4.93
2023-01-30T22:20:13.891Z,4.60
2023-01-30T22:22:45.564Z,4.87
2023-01-30T22:25:17.415Z,5.13
2023-01-30T22:27:49.319Z,4.83
2023-01-30T22:30:21.166Z,5.60
2023-01-30T22:32:53.561Z,4.43
2023-01-30T22:35:26.508Z,4.40
2023-01-30T22:37:58.152Z,4.47
2023-01-30T22:40:29.786Z,4.87
2023-01-30T22:43:01.452Z,5.20
2023-01-30T22:45:34.464Z,5.00
2023-01-30T22:48:06.299Z,4.63
2023-01-30T22:50:39.332Z,4.27
2023-01-30T22:53:11.031Z,4.83
2023-01-30T22:55:42.658Z,4.47
2023-01-30T22:58:14.299Z,5.40
